Time;durP1;ratioP1;P1;durP2;ratioP2;P2;SDS_P1;SDS_P2;PMS_P1;PMS_P2;Temp;Humidity;BMP_temperature;BMP_pressure;BME280_temperature;BME280_humidity;BME280_pressure;Samples;Min_cycle;Max_cycle;Signal;HPM_P1;HPM_P2
2023/04/30 00:01:48;;;;;;;13.10;7.60;;;;;;;9.71;79.66;100798.85;105191;1258;72854;-46
2023/04/30 00:04:17;;;;;;;10.70;7.90;;;;;;;9.65;79.47;100800.07;105269;1260;69986;-47
2023/04/30 00:06:45;;;;;;;12.10;7.00;;;;;;;9.58;79.21;100800.41;105215;1260;69994;-47
2023/04/30 00:09:13;;;;;;;11.70;7.30;;;;;;;9.51;78.98;100801.48;105241;1259;74659;-46
2023/04/30 00:11:41;;;;;;;10.10;6.60;;;;;;;9.42;78.83;100799.27;105237;1261;83487;-46
2023/04/30 00:14:10;;;;;;;9.70;6.70;;;;;;;9.34;78.82;100801.05;105268;1257;73433;-47
2023/04/30 00:16:38;;;;;;;11.20;6.80;;;;;;;9.25;78.78;100801.61;105145;1257;70008;-46
2023/04/30 00:19:07;;;;;;;8.80;6.10;;;;;;;9.17;78.77;100805.32;105238;1260;69996;-46
2023/04/30 00:21:35;;;;;;;12.00;7.00;;;;;;;9.06;78.65;100804.54;105298;1261;73269;-46
2023/04/30 00:24:04;;;;;;;9.50;6.50;;;;;;;8.98;78.88;100808.05;105156;1258;83313;-47
2023/04/30 00:26:32;;;;;;;7.60;6.00;;;;;;;8.92;79.06;100805.40;105262;1257;73909;-46
2023/04/30 00:29:01;;;;;;;13.30;6.30;;;;;;;8.85;78.97;100805.89;105252;1256;69817;-46
2023/04/30 00:31:29;;;;;;;8.20;6.10;;;;;;;8.80;78.91;100808.29;105276;1257;70060;-47
2023/04/30 00:33:58;;;;;;;10.70;6.40;;;;;;;8.75;78.92;100810.31;105196;1257;74594;-46
2023/04/30 00:36:26;;;;;;;8.30;6.50;;;;;;;8.69;78.92;100810.98;105191;1256;81550;-47
2023/04/30 00:38:54;;;;;;;11.00;7.50;;;;;;;8.63;78.99;100807.45;105216;1256;72741;-46
2023/04/30 00:41:23;;;;;;;9.90;7.10;;;;;;;8.57;78.83;100808.81;105093;1262;70774;-46
2023/04/30 00:43:51;;;;;;;10.50;7.50;;;;;;;8.50;78.96;100809.14;105260;1256;69883;-48
2023/04/30 00:46:19;;;;;;;11.30;7.60;;;;;;;8.43;78.69;100811.39;105082;1262;73995;-46
2023/04/30 00:48:48;;;;;;;12.60;7.20;;;;;;;8.35;78.82;100812.58;105172;1257;82639;-46
2023/04/30 00:51:16;;;;;;;10.20;7.00;;;;;;;8.28;78.88;100813.06;105321;1261;74161;-46
2023/04/30 00:53:45;;;;;;;10.70;7.50;;;;;;;8.20;78.74;100816.52;105211;1261;69994;-46
2023/04/30 00:56:15;;;;;;;10.80;7.30;;;;;;;8.12;78.91;100814.61;105176;1258;69898;-46
2023/04/30 00:58:44;;;;;;;10.90;6.70;;;;;;;8.04;79.00;100818.60;105227;1260;75163;-46
2023/04/30 01:01:12;;;;;;;8.50;6.80;;;;;;;7.94;78.82;100818.96;105075;1258;82506;-46
2023/04/30 01:03:41;;;;;;;11.40;6.20;;;;;;;7.85;79.35;100823.15;104979;1263;73965;-46
2023/04/30 01:06:09;;;;;;;10.00;6.70;;;;;;;7.75;79.45;100824.72;105228;1260;69977;-46
2023/04/30 01:08:37;;;;;;;8.60;5.60;;;;;;;7.64;79.62;100828.40;105065;1262;69950;-50
2023/04/30 01:11:25;;;;;;;10.10;6.70;;;;;;;7.54;79.51;100828.74;105058;1257;74971;-47
2023/04/30 01:14:10;;;;;;;11.90;7.10;;;;;;;7.51;79.78;100832.81;105200;1257;83375;-47
2023/04/30 01:17:05;;;;;;;9.70;7.50;;;;;;;7.48;79.98;100828.86;105114;1256;73730;-45
2023/04/30 01:19:44;;;;;;;12.10;7.00;;;;;;;7.43;80.11;100832.59;105171;1261;70021;-46
2023/04/30 01:22:29;;;;;;;9.10;6.50;;;;;;;7.40;80.24;100827.60;105158;1257;70644;-46
2023/04/30 01:25:14;;;;;;;11.20;7.40;;;;;;;7.34;80.25;100829.80;105231;1260;74304;-46
2023/04/30 01:28:05;;;;;;;9.70;7.00;;;;;;;7.24;80.49;100832.22;105240;1260;81522;-46
2023/04/30 01:30:34;;;;;;;11.10;6.70;;;;;;;7.09;80.28;100833.48;105236;1257;72782;-46
2023/04/30 01:33:03;;;;;;;11.40;6.80;;;;;;;6.95;80.20;100840.66;105137;1256;69954;-46
2023/04/30 01:35:39;;;;;;;10.90;6.70;;;;;;;6.81;80.33;100847.48;105125;1262;71461;-47
2023/04/30 01:38:18;;;;;;;13.10;9.10;;;;;;;6.70;80.69;100854.05;105278;1260;75185;-46
2023/04/30 01:40:52;;;;;;;7.80;6.00;;;;;;;6.72;81.47;100857.17;105190;1261;83614;-46
2023/04/30 01:43:35;;;;;;;13.20;8.60;;;;;;;6.73;81.50;100858.36;105161;1260;72343;-46
2023/04/30 01:46:21;;;;;;;12.30;7.90;;;;;;;6.73;81.62;100862.35;105095;1257;70540;-47
2023/04/30 01:49:15;;;;;;;12.90;7.20;;;;;;;6.70;81.69;100863.27;105088;1256;70054;-46
2023/04/30 01:51:46;;;;;;;8.60;6.20;;;;;;;6.64;81.65;100866.98;105213;1258;74703;-47
2023/04/30 01:54:35;;;;;;;11.60;8.20;;;;;;;6.58;81.61;100869.14;105208;1260;82494;-46
2023/04/30 01:57:23;;;;;;;13.20;9.00;;;;;;;6.60;82.20;100873.29;105083;1257;73670;-46
2023/04/30 01:59:52;;;;;;;15.40;9.00;;;;;;;6.65;82.45;100873.93;105193;1257;69989;-46
2023/04/30 02:02:20;;;;;;;13.50;8.90;;;;;;;6.68;82.49;100878.05;105186;1257;70005;-46
2023/04/30 02:04:49;;;;;;;15.70;9.10;;;;;;;6.70;82.50;100878.53;105222;1256;75136;-46
2023/04/30 02:07:28;;;;;;;11.70;7.70;;;;;;;6.72;82.50;100881.45;105089;1260;83359;-47
2023/04/30 02:09:56;;;;;;;12.00;8.30;;;;;;;6.74;82.52;100884.05;105098;1256;74089;-47
2023/04/30 02:12:24;;;;;;;11.30;8.60;;;;;;;6.77;82.73;100884.35;105246;1260;70019;-46
2023/04/30 02:14:52;;;;;;;12.10;8.00;;;;;;;6.80;82.54;100885.54;105172;1260;69971;-48
2023/04/30 02:17:20;;;;;;;13.30;7.90;;;;;;;6.82;82.59;100885.67;105084;1262;74571;-46
2023/04/30 02:19:49;;;;;;;14.00;9.00;;;;;;;6.80;82.56;100889.00;105222;1256;81529;-46
2023/04/30 02:22:17;;;;;;;11.10;8.20;;;;;;;6.80;82.92;100891.45;105275;1260;72741;-46
2023/04/30 02:24:45;;;;;;;12.10;9.30;;;;;;;6.79;82.95;100890.59;105225;1257;69979;-46
2023/04/30 02:27:14;;;;;;;13.80;8.80;;;;;;;6.78;83.00;100895.11;105214;1257;69888;-47
2023/04/30 02:29:42;;;;;;;14.20;9.40;;;;;;;6.78;83.22;100898.05;105180;1260;75225;-46
2023/04/30 02:32:10;;;;;;;12.50;9.00;;;;;;;6.77;83.21;100894.96;105155;1256;83927;-46
2023/04/30 02:34:38;;;;;;;15.60;9.70;;;;;;;6.77;83.17;100898.60;105125;1258;73671;-46
2023/04/30 02:37:07;;;;;;;12.70;9.10;;;;;;;6.78;82.79;100897.73;105137;1255;69932;-46
2023/04/30 02:39:35;;;;;;;11.70;8.10;;;;;;;6.77;83.11;100901.38;105190;1256;69980;-47
2023/04/30 02:42:05;;;;;;;11.80;8.70;;;;;;;6.76;82.94;100901.39;105192;1258;74344;-47
2023/04/30 02:44:34;;;;;;;12.40;8.40;;;;;;;6.74;82.94;100903.33;105215;1260;82549;-47
2023/04/30 02:47:02;;;;;;;14.30;9.00;;;;;;;6.71;82.66;100907.71;105252;1260;72242;-46
2023/04/30 02:49:31;;;;;;;13.70;8.00;;;;;;;6.68;82.62;100908.61;105240;1257;69919;-46
2023/04/30 02:51:59;;;;;;;12.20;7.40;;;;;;;6.65;82.72;100910.73;105201;1257;70002;-47
2023/04/30 02:54:28;;;;;;;10.30;7.20;;;;;;;6.63;82.77;100921.01;105268;1260;75143;-47
2023/04/30 02:56:56;;;;;;;11.90;7.50;;;;;;;6.60;82.60;100929.55;105198;1256;82591;-48
2023/04/30 02:59:24;;;;;;;10.00;7.60;;;;;;;6.60;82.71;100934.08;105197;1259;72682;-47
2023/04/30 03:01:53;;;;;;;13.20;7.40;;;;;;;6.58;82.83;100937.21;105211;1256;69932;-47
2023/04/30 03:04:21;;;;;;;12.10;6.80;;;;;;;6.55;82.65;100941.08;105148;1257;69914;-48
2023/04/30 03:06:49;;;;;;;14.30;7.20;;;;;;;6.52;82.74;100942.86;105335;1256;73924;-48
2023/04/30 03:09:18;;;;;;;13.50;7.70;;;;;;;6.49;82.74;100943.75;105195;1256;83376;-48
2023/04/30 03:11:46;;;;;;;13.00;7.30;;;;;;;6.47;82.53;100946.20;105185;1257;72756;-48
2023/04/30 03:14:14;;;;;;;8.60;6.70;;;;;;;6.43;82.61;100944.33;105177;1261;69993;-47
2023/04/30 03:16:42;;;;;;;11.50;6.30;;;;;;;6.40;82.34;100944.36;105132;1256;70017;-48
2023/04/30 03:19:12;;;;;;;9.70;6.90;;;;;;;6.38;82.44;100944.58;105242;1260;74231;-47
2023/04/30 03:21:40;;;;;;;10.00;6.90;;;;;;;6.36;82.45;100945.98;105172;1256;83439;-47
2023/04/30 03:24:08;;;;;;;11.20;6.80;;;;;;;6.34;82.41;100946.70;105236;1256;74192;-47
2023/04/30 03:26:37;;;;;;;14.40;7.30;;;;;;;6.30;82.15;100950.38;105086;1260;70012;-47
2023/04/30 03:29:05;;;;;;;15.90;7.90;;;;;;;6.25;82.27;100950.44;105192;1256;70255;-47
2023/04/30 03:31:33;;;;;;;13.00;8.20;;;;;;;6.21;82.18;100953.77;105195;1260;75012;-47
2023/04/30 03:34:01;;;;;;;12.10;7.30;;;;;;;6.19;82.58;100960.04;105218;1260;82658;-49
2023/04/30 03:36:30;;;;;;;10.10;7.70;;;;;;;6.18;82.74;100960.56;105181;1257;73259;-47
2023/04/30 03:38:58;;;;;;;9.50;7.00;;;;;;;6.17;82.58;100962.84;105222;1257;70000;-47
2023/04/30 03:41:26;;;;;;;12.00;7.80;;;;;;;6.13;82.63;100968.25;105231;1260;69946;-47
2023/04/30 03:43:54;;;;;;;10.30;6.90;;;;;;;6.11;82.53;100970.18;105176;1260;74312;-47
2023/04/30 03:46:23;;;;;;;12.40;7.00;;;;;;;6.08;82.50;100967.42;105187;1257;83543;-47
2023/04/30 03:48:51;;;;;;;9.60;6.30;;;;;;;6.07;82.65;100972.31;105180;1256;73278;-48
2023/04/30 03:51:20;;;;;;;10.30;6.20;;;;;;;6.04;82.56;100978.56;105237;1257;69932;-48
2023/04/30 03:53:48;;;;;;;9.20;5.90;;;;;;;6.02;82.57;100979.81;105197;1256;70002;-47
2023/04/30 03:56:17;;;;;;;12.30;6.30;;;;;;;6.01;82.63;100982.95;105203;1257;74082;-47
2023/04/30 03:58:45;;;;;;;9.60;5.60;;;;;;;5.99;82.60;100986.77;105232;1256;83392;-48
2023/04/30 04:01:13;;;;;;;9.10;5.00;;;;;;;5.99;82.68;100990.25;105175;1256;73822;-47
2023/04/30 04:03:41;;;;;;;10.80;5.00;;;;;;;5.98;82.72;100994.41;105122;1262;70018;-47
2023/04/30 04:06:10;;;;;;;7.80;5.10;;;;;;;5.99;82.66;100990.59;105237;1260;69862;-48
2023/04/30 04:08:41;;;;;;;12.80;5.50;;;;;;;6.00;82.63;100994.58;105059;1262;73859;-47
2023/04/30 04:11:11;;;;;;;9.30;5.20;;;;;;;6.01;82.68;100998.03;105134;1260;83573;-47
2023/04/30 04:13:39;;;;;;;8.40;5.00;;;;;;;6.03;82.83;101002.70;105095;1262;73920;-48
2023/04/30 04:16:08;;;;;;;8.50;4.80;;;;;;;6.04;82.79;101006.50;105221;1255;69993;-46
2023/04/30 04:18:37;;;;;;;9.80;5.30;;;;;;;6.06;82.65;101011.17;105243;1257;69928;-48
2023/04/30 04:21:05;;;;;;;10.40;5.10;;;;;;;6.08;82.89;101014.45;105083;1262;74780;-47
2023/04/30 04:23:34;;;;;;;13.90;7.30;;;;;;;6.10;83.00;101017.04;105279;1257;83878;-46
2023/04/30 04:26:02;;;;;;;12.80;7.00;;;;;;;6.12;82.96;101019.44;105250;1260;74404;-47
2023/04/30 04:28:30;;;;;;;8.60;5.80;;;;;;;6.13;82.78;101020.65;105182;1257;70600;-47
2023/04/30 04:30:59;;;;;;;8.40;5.30;;;;;;;6.15;82.73;101020.64;105192;1256;69871;-46
2023/04/30 04:33:28;;;;;;;12.30;5.60;;;;;;;6.17;82.93;101021.66;105127;1262;74887;-48
2023/04/30 04:35:56;;;;;;;9.50;5.30;;;;;;;6.21;82.97;101027.87;105159;1260;83375;-47
2023/04/30 04:38:25;;;;;;;8.50;4.50;;;;;;;6.24;82.90;101025.41;105078;1257;73858;-47
2023/04/30 04:40:55;;;;;;;9.60;4.90;;;;;;;6.29;83.14;101032.66;105260;1256;69988;-46
2023/04/30 04:43:23;;;;;;;7.20;4.90;;;;;;;6.33;82.94;101032.45;105106;1262;70012;-47
2023/04/30 04:45:51;;;;;;;8.70;4.60;;;;;;;6.36;83.32;101031.55;105080;1256;73932;-47
2023/04/30 04:48:20;;;;;;;9.60;5.60;;;;;;;6.38;83.03;101032.23;105093;1262;83219;-47
2023/04/30 04:50:48;;;;;;;7.60;5.40;;;;;;;6.39;82.88;101035.86;105170;1260;73879;-47
2023/04/30 04:53:16;;;;;;;9.00;5.10;;;;;;;6.41;83.19;101038.97;105177;1257;69986;-47
2023/04/30 04:55:44;;;;;;;11.20;5.00;;;;;;;6.43;82.80;101042.25;105204;1260;70005;-47
2023/04/30 04:58:13;;;;;;;10.60;4.90;;;;;;;6.46;82.98;101048.83;105140;1256;74286;-47
2023/04/30 05:00:41;;;;;;;9.80;5.40;;;;;;;6.49;82.90;101050.36;105206;1257;83456;-47
2023/04/30 05:03:09;;;;;;;8.80;4.80;;;;;;;6.51;82.96;101053.27;105067;1256;73739;-47
2023/04/30 05:05:38;;;;;;;9.30;4.70;;;;;;;6.56;82.82;101057.76;105241;1258;70002;-47
2023/04/30 05:08:06;;;;;;;8.10;4.90;;;;;;;6.59;82.81;101062.58;105124;1256;69957;-47
2023/04/30 05:10:34;;;;;;;8.10;4.80;;;;;;;6.64;83.22;101068.60;105071;1260;74861;-46
2023/04/30 05:13:02;;;;;;;10.10;5.10;;;;;;;6.69;83.08;101076.71;105224;1260;83394;-46
2023/04/30 05:15:30;;;;;;;8.50;4.60;;;;;;;6.74;83.02;101082.41;105163;1260;74599;-47
2023/04/30 05:17:58;;;;;;;7.10;4.30;;;;;;;6.78;83.00;101084.11;105152;1256;70249;-47
2023/04/30 05:20:27;;;;;;;7.70;4.10;;;;;;;6.80;82.59;101091.89;105182;1256;70009;-47
2023/04/30 05:22:55;;;;;;;7.20;4.50;;;;;;;6.82;82.84;101094.11;105198;1260;74834;-49
2023/04/30 05:25:23;;;;;;;9.70;4.50;;;;;;;6.87;82.73;101098.93;105183;1257;83712;-50
2023/04/30 05:27:51;;;;;;;9.10;4.30;;;;;;;6.89;82.66;101101.52;105169;1260;73919;-45
2023/04/30 05:30:19;;;;;;;7.20;3.80;;;;;;;6.92;82.49;101106.34;105163;1258;69951;-46
2023/04/30 05:32:50;;;;;;;8.60;4.10;;;;;;;6.97;82.48;101108.23;105136;1256;69917;-45
2023/04/30 05:35:19;;;;;;;9.00;4.30;;;;;;;7.01;82.26;101105.91;105280;1257;74925;-46
2023/04/30 05:37:47;;;;;;;7.40;4.20;;;;;;;7.06;82.33;101106.38;105162;1257;83379;-45
2023/04/30 05:40:16;;;;;;;7.90;3.80;;;;;;;7.10;82.07;101112.92;105329;1259;73904;-45
2023/04/30 05:42:44;;;;;;;6.40;4.10;;;;;;;7.13;82.14;101114.13;105223;1256;69999;-46
2023/04/30 05:45:14;;;;;;;8.10;4.00;;;;;;;7.17;82.01;101116.68;105303;1257;69893;-47
2023/04/30 05:47:43;;;;;;;7.70;4.00;;;;;;;7.21;81.79;101118.37;105231;1256;74813;-45
2023/04/30 05:50:11;;;;;;;9.00;3.90;;;;;;;7.24;81.78;101115.03;105183;1260;83841;-46
2023/04/30 05:52:39;;;;;;;12.40;4.10;;;;;;;7.28;81.79;101118.45;105150;1261;73856;-46
2023/04/30 05:55:09;;;;;;;9.60;3.90;;;;;;;7.31;81.36;101119.82;105293;1256;69996;-46
2023/04/30 05:57:37;;;;;;;5.80;3.30;;;;;;;7.34;81.15;101118.21;105442;1256;69984;-45
2023/04/30 06:00:06;;;;;;;7.20;3.30;;;;;;;7.38;81.07;101120.42;105291;1256;74595;-45
2023/04/30 06:02:40;;;;;;;8.90;4.20;;;;;;;7.43;81.49;101121.05;105334;1259;83155;-45
2023/04/30 06:05:09;;;;;;;7.40;3.40;;;;;;;7.49;81.35;101127.59;105221;1259;73940;-45
2023/04/30 06:07:37;;;;;;;7.40;3.50;;;;;;;7.54;81.02;101130.66;105199;1256;70652;-46
2023/04/30 06:10:06;;;;;;;11.80;4.40;;;;;;;7.59;81.02;101129.20;105155;1256;69948;-45
2023/04/30 06:12:34;;;;;;;7.60;3.40;;;;;;;7.64;81.23;101128.61;105338;1256;73372;-46
2023/04/30 06:15:03;;;;;;;8.10;3.40;;;;;;;7.69;80.64;101130.29;105233;1256;82943;-45
2023/04/30 06:17:31;;;;;;;10.30;3.80;;;;;;;7.74;80.81;101127.61;105223;1260;73190;-47
2023/04/30 06:20:05;;;;;;;10.80;3.60;;;;;;;7.77;80.94;101123.73;105431;1256;69907;-46
2023/04/30 06:22:33;;;;;;;7.70;3.40;;;;;;;7.83;80.89;101127.66;105350;1256;69993;-46
2023/04/30 06:25:02;;;;;;;8.30;3.50;;;;;;;7.89;80.67;101126.88;105218;1259;74863;-45
2023/04/30 06:27:31;;;;;;;9.40;4.00;;;;;;;7.93;80.40;101135.88;105251;1259;83904;-47
2023/04/30 06:29:59;;;;;;;6.70;3.30;;;;;;;7.97;80.55;101133.89;105350;1257;73690;-45
2023/04/30 06:32:28;;;;;;;7.70;3.20;;;;;;;8.01;80.31;101136.44;105205;1257;70003;-46
2023/04/30 06:34:56;;;;;;;9.30;3.60;;;;;;;8.05;79.76;101139.52;105135;1258;69900;-46
2023/04/30 06:37:24;;;;;;;6.00;3.10;;;;;;;8.07;79.72;101144.36;105236;1260;75049;-45
2023/04/30 06:39:52;;;;;;;7.10;2.90;;;;;;;8.12;79.95;101146.04;105289;1260;84352;-46
2023/04/30 06:42:21;;;;;;;8.20;2.80;;;;;;;8.17;79.73;101151.55;105136;1260;72527;-45
2023/04/30 06:44:49;;;;;;;8.70;3.60;;;;;;;8.22;79.69;101147.63;105149;1257;69946;-46
2023/04/30 06:47:17;;;;;;;8.60;3.50;;;;;;;8.27;79.64;101146.84;105196;1256;69918;-46
2023/04/30 06:49:45;;;;;;;7.10;2.70;;;;;;;8.36;79.59;101150.72;105376;1256;74626;-46
2023/04/30 06:52:13;;;;;;;7.10;2.60;;;;;;;8.43;79.62;101152.20;105210;1256;81794;-45
2023/04/30 06:54:42;;;;;;;9.50;3.10;;;;;;;8.47;79.02;101156.32;105388;1257;73603;-47
2023/04/30 06:57:11;;;;;;;7.30;2.70;;;;;;;8.53;79.18;101152.91;105266;1258;70673;-45
2023/04/30 06:59:39;;;;;;;6.00;2.90;;;;;;;8.61;79.17;101154.70;105203;1256;69920;-46
2023/04/30 07:02:07;;;;;;;6.90;2.60;;;;;;;8.66;79.13;101151.64;105247;1260;73868;-45
2023/04/30 07:04:35;;;;;;;4.70;2.40;;;;;;;8.71;78.72;101152.77;105224;1256;83408;-45
2023/04/30 07:07:04;;;;;;;11.80;3.40;;;;;;;8.75;77.97;101150.79;105293;1256;73406;-46
2023/04/30 07:09:32;;;;;;;7.30;3.30;;;;;;;8.79;78.20;101146.55;105449;1256;69939;-45
2023/04/30 07:12:00;;;;;;;7.40;2.20;;;;;;;8.87;78.36;101150.41;105261;1256;69926;-46
2023/04/30 07:14:28;;;;;;;4.70;2.00;;;;;;;8.93;77.61;101153.95;105477;1260;75127;-45
2023/04/30 07:16:56;;;;;;;5.90;2.60;;;;;;;8.99;77.50;101155.27;105183;1257;82850;-48
2023/04/30 07:19:25;;;;;;;7.00;2.30;;;;;;;9.07;77.26;101154.73;105198;1260;73936;-47
2023/04/30 07:21:54;;;;;;;5.80;2.20;;;;;;;9.14;76.96;101150.78;105414;1260;69919;-45
2023/04/30 07:24:22;;;;;;;6.20;2.30;;;;;;;9.17;76.62;101148.81;105223;1256;69910;-45
2023/04/30 07:26:50;;;;;;;4.90;2.40;;;;;;;9.22;76.64;101150.63;105324;1256;73949;-46
2023/04/30 07:29:18;;;;;;;5.80;2.90;;;;;;;9.28;76.45;101150.85;105249;1262;83971;-47
2023/04/30 07:31:47;;;;;;;8.50;2.30;;;;;;;9.33;76.00;101144.83;105314;1257;73559;-48
2023/04/30 07:34:15;;;;;;;6.80;2.50;;;;;;;9.39;75.88;101143.66;105230;1256;70022;-52
2023/04/30 07:36:43;;;;;;;8.00;2.60;;;;;;;9.48;76.04;101149.59;105201;1255;69829;-48
2023/04/30 07:39:11;;;;;;;8.20;2.80;;;;;;;9.56;75.63;101148.20;105167;1260;75087;-47
2023/04/30 07:41:39;;;;;;;9.40;3.20;;;;;;;9.63;75.37;101149.61;105225;1257;83397;-47
2023/04/30 07:44:07;;;;;;;5.00;2.50;;;;;;;9.73;75.27;101157.63;105170;1256;72424;-49
2023/04/30 07:46:36;;;;;;;8.40;2.70;;;;;;;9.82;74.90;101155.48;105155;1260;69935;-47
2023/04/30 07:49:04;;;;;;;6.90;2.10;;;;;;;9.89;74.45;101158.15;105189;1255;69979;-47
2023/04/30 07:51:32;;;;;;;6.90;2.60;;;;;;;9.96;73.91;101154.50;105249;1260;73780;-46
2023/04/30 07:54:01;;;;;;;7.80;2.50;;;;;;;10.03;74.29;101156.23;105255;1260;83763;-48
2023/04/30 07:56:29;;;;;;;7.50;2.70;;;;;;;10.17;74.11;101162.58;105158;1256;72727;-48
2023/04/30 07:58:57;;;;;;;4.40;2.10;;;;;;;10.28;74.21;101158.48;105146;1260;69996;-48
2023/04/30 08:01:25;;;;;;;7.70;2.80;;;;;;;10.40;74.12;101165.55;105262;1256;69990;-47
2023/04/30 08:03:54;;;;;;;6.60;2.70;;;;;;;10.54;73.88;101168.02;105235;1257;74792;-47
2023/04/30 08:06:23;;;;;;;6.30;2.60;;;;;;;10.62;73.24;101165.36;105213;1256;82619;-47
2023/04/30 08:08:51;;;;;;;7.20;2.50;;;;;;;10.68;73.14;101170.80;105206;1256;71816;-47
2023/04/30 08:11:19;;;;;;;9.20;3.30;;;;;;;10.78;72.77;101172.81;105151;1256;69961;-47
2023/04/30 08:13:47;;;;;;;8.20;2.60;;;;;;;10.83;72.26;101173.23;105205;1260;69996;-47
2023/04/30 08:16:15;;;;;;;10.80;2.80;;;;;;;10.92;72.32;101175.08;105152;1256;75040;-47
2023/04/30 08:18:45;;;;;;;6.90;2.00;;;;;;;11.04;71.99;101177.56;105248;1257;82912;-47
2023/04/30 08:21:13;;;;;;;7.60;2.30;;;;;;;11.16;71.70;101177.78;105132;1261;72765;-48
2023/04/30 08:23:41;;;;;;;7.80;2.20;;;;;;;11.29;71.25;101179.36;105132;1262;70076;-47
2023/04/30 08:26:10;;;;;;;7.50;2.60;;;;;;;11.40;71.05;101176.61;105163;1256;69949;-47
2023/04/30 08:28:38;;;;;;;9.20;2.70;;;;;;;11.54;70.81;101177.06;105229;1256;74851;-48
2023/04/30 08:31:07;;;;;;;8.70;2.80;;;;;;;11.66;70.39;101175.33;105235;1260;83234;-47
2023/04/30 08:33:35;;;;;;;9.10;3.10;;;;;;;11.82;70.12;101178.70;105192;1261;73667;-48
2023/04/30 08:36:04;;;;;;;4.60;1.80;;;;;;;12.01;70.08;101180.79;105140;1260;70155;-48
2023/04/30 08:38:32;;;;;;;8.30;2.00;;;;;;;12.13;69.31;101182.00;105114;1257;69929;-48
2023/04/30 08:41:14;;;;;;;5.40;2.00;;;;;;;12.15;68.36;101185.45;105170;1262;74926;-48
2023/04/30 08:43:43;;;;;;;3.60;1.70;;;;;;;12.19;68.38;101184.27;105170;1256;83389;-48
2023/04/30 08:46:15;;;;;;;7.20;2.10;;;;;;;12.22;67.85;101185.59;105214;1256;73789;-47
2023/04/30 08:48:44;;;;;;;4.70;1.80;;;;;;;12.20;67.22;101187.41;105134;1256;70025;-47
2023/04/30 08:51:13;;;;;;;9.70;2.20;;;;;;;12.23;67.16;101184.67;105234;1257;69893;-48
2023/04/30 08:53:42;;;;;;;6.40;2.60;;;;;;;12.28;67.22;101191.16;105220;1256;74638;-48
2023/04/30 08:56:10;;;;;;;6.30;2.60;;;;;;;12.38;66.80;101196.11;105249;1257;83508;-49
2023/04/30 08:58:39;;;;;;;6.50;2.20;;;;;;;12.37;65.85;101191.08;105213;1257;72797;-46
2023/04/30 09:01:08;;;;;;;4.80;2.20;;;;;;;12.41;66.11;101192.16;105206;1261;70015;-47
2023/04/30 09:03:37;;;;;;;6.90;3.30;;;;;;;12.43;66.09;101195.26;105165;1258;70049;-48
2023/04/30 09:06:05;;;;;;;8.50;2.70;;;;;;;12.45;65.76;101194.14;105183;1261;75170;-49
2023/04/30 09:08:48;;;;;;;7.00;2.50;;;;;;;12.51;65.66;101196.39;105212;1260;83659;-48
2023/04/30 09:11:27;;;;;;;11.10;2.30;;;;;;;12.74;65.76;101194.43;105192;1260;72750;-48
2023/04/30 09:14:00;;;;;;;5.70;2.20;;;;;;;12.89;65.35;101194.60;105177;1256;69911;-48
2023/04/30 09:16:44;;;;;;;9.00;2.30;;;;;;;12.74;63.98;101196.19;105152;1256;69936;-47
2023/04/30 09:19:23;;;;;;;5.60;2.20;;;;;;;12.56;63.54;101192.55;105193;1261;74014;-47
2023/04/30 09:21:51;;;;;;;4.80;2.00;;;;;;;12.60;63.72;101192.61;105193;1257;83254;-48
2023/04/30 09:24:19;;;;;;;9.70;2.20;;;;;;;12.74;64.04;101191.42;105208;1258;73712;-48
2023/04/30 09:26:48;;;;;;;5.60;2.40;;;;;;;12.94;64.13;101191.81;105143;1256;70269;-47
2023/04/30 09:29:16;;;;;;;8.80;2.90;;;;;;;13.13;64.10;101191.51;105210;1262;70108;-48
2023/04/30 09:31:46;;;;;;;8.60;2.30;;;;;;;13.35;63.85;101188.98;105214;1256;73569;-48
2023/04/30 09:34:14;;;;;;;4.50;1.90;;;;;;;13.50;63.52;101190.39;105232;1256;83340;-46
2023/04/30 09:36:55;;;;;;;7.10;2.50;;;;;;;13.69;63.17;101191.97;105172;1257;73899;-47
2023/04/30 09:39:23;;;;;;;7.20;2.20;;;;;;;13.89;62.80;101188.59;105197;1261;69946;-48
2023/04/30 09:41:52;;;;;;;6.00;2.10;;;;;;;14.15;62.70;101188.65;105039;1256;69997;-48
2023/04/30 09:44:31;;;;;;;5.10;2.10;;;;;;;14.32;61.96;101180.04;105262;1257;75028;-47
2023/04/30 09:46:59;;;;;;;6.10;2.10;;;;;;;14.48;61.54;101181.34;105206;1260;83525;-50
2023/04/30 09:49:28;;;;;;;5.20;2.00;;;;;;;14.56;60.75;101187.91;105045;1257;72760;-48
2023/04/30 09:52:00;;;;;;;9.20;3.10;;;;;;;14.63;60.19;101188.48;105218;1256;69933;-48
2023/04/30 09:54:29;;;;;;;7.10;3.00;;;;;;;14.77;59.86;101183.86;105227;1261;70009;-48
2023/04/30 09:57:00;;;;;;;8.90;2.80;;;;;;;14.94;59.72;101182.77;105226;1257;75154;-47
2023/04/30 09:59:31;;;;;;;5.40;2.50;;;;;;;15.18;59.40;101185.65;105198;1256;82344;-48
2023/04/30 10:02:01;;;;;;;6.60;2.30;;;;;;;15.38;58.95;101184.41;105207;1256;72809;-47
2023/04/30 10:04:33;;;;;;;5.00;2.10;;;;;;;15.58;58.25;101179.27;105207;1256;69970;-48
2023/04/30 10:07:09;;;;;;;6.10;2.20;;;;;;;15.71;57.12;101180.45;105197;1256;69996;-48
2023/04/30 10:09:56;;;;;;;7.10;1.90;;;;;;;15.89;56.54;101178.60;105163;1260;73880;-47
2023/04/30 10:12:29;;;;;;;9.80;2.10;;;;;;;16.14;57.02;101177.22;105174;1260;83369;-46
2023/04/30 10:15:22;;;;;;;6.00;2.60;;;;;;;16.36;56.75;101172.27;105183;1256;73890;-46
2023/04/30 10:18:04;;;;;;;5.30;2.30;;;;;;;16.63;56.00;101170.77;105190;1257;70019;-46
2023/04/30 10:20:35;;;;;;;3.60;2.10;;;;;;;16.88;55.47;101160.02;105169;1256;70441;-46
2023/04/30 10:23:04;;;;;;;6.40;2.60;;;;;;;17.09;55.14;101161.74;105194;1256;75032;-47
2023/04/30 10:25:32;;;;;;;5.70;2.20;;;;;;;17.24;54.63;101156.05;105217;1256;83929;-46
2023/04/30 10:28:01;;;;;;;5.10;1.70;;;;;;;17.52;54.41;101161.06;105199;1256;73796;-46
2023/04/30 10:30:33;;;;;;;6.00;2.50;;;;;;;17.80;54.11;101160.08;105188;1257;69882;-46
2023/04/30 10:33:14;;;;;;;5.90;2.10;;;;;;;18.07;53.74;101155.42;105222;1256;70529;-46
2023/04/30 10:35:48;;;;;;;5.60;2.00;;;;;;;18.28;53.26;101153.54;105231;1260;75073;-47
2023/04/30 10:38:28;;;;;;;6.00;2.30;;;;;;;18.40;52.24;101146.09;105107;1256;82973;-46
2023/04/30 10:41:01;;;;;;;5.00;1.70;;;;;;;18.41;52.09;101147.80;105159;1256;73773;-46
2023/04/30 10:43:30;;;;;;;7.70;3.00;;;;;;;18.65;51.62;101146.95;105169;1257;70022;-46
2023/04/30 10:45:58;;;;;;;6.50;2.40;;;;;;;18.86;51.09;101149.98;105265;1256;69839;-46
2023/04/30 10:48:30;;;;;;;5.20;2.00;;;;;;;19.04;50.30;101144.30;105212;1256;73891;-46
2023/04/30 10:50:58;;;;;;;6.70;2.20;;;;;;;19.18;49.67;101139.92;105234;1259;83400;-46
2023/04/30 10:53:30;;;;;;;4.40;1.80;;;;;;;19.33;49.41;101140.92;105174;1261;71922;-48
2023/04/30 10:56:07;;;;;;;5.00;2.30;;;;;;;19.52;49.41;101143.10;105222;1256;70002;-48
2023/04/30 10:58:38;;;;;;;5.70;1.70;;;;;;;19.74;48.66;101140.48;105234;1261;69921;-48
2023/04/30 11:01:14;;;;;;;;;;;;;;;19.92;48.24;101137.77;105215;1260;72505;-47
2023/04/30 11:04:09;;;;;;;5.20;1.70;;;;;;;20.14;47.68;101145.56;105197;1261;82231;-48
2023/04/30 11:06:54;;;;;;;5.50;2.10;;;;;;;20.28;46.93;101143.73;105159;1261;74861;-48
2023/04/30 11:09:38;;;;;;;4.80;1.40;;;;;;;20.39;46.51;101140.57;105143;1256;70097;-47
2023/04/30 11:12:20;;;;;;;6.50;2.60;;;;;;;20.64;46.15;101138.15;105190;1256;69831;-49
2023/04/30 11:14:49;;;;;;;6.00;1.90;;;;;;;20.73;45.54;101137.19;105214;1257;75095;-48
2023/04/30 11:17:22;;;;;;;5.60;1.60;;;;;;;20.81;45.01;101136.35;105172;1260;83406;-47
2023/04/30 11:19:52;;;;;;;5.70;2.10;;;;;;;20.83;44.55;101134.41;105161;1256;72896;-48
2023/04/30 11:22:25;;;;;;;4.90;2.00;;;;;;;20.76;44.33;101130.27;105195;1257;69973;-47
2023/04/30 11:25:02;;;;;;;5.70;1.60;;;;;;;20.70;44.30;101133.35;105155;1257;69905;-47
2023/04/30 11:27:35;;;;;;;4.50;1.60;;;;;;;20.70;44.32;101131.90;105157;1257;74806;-48
2023/04/30 11:30:09;;;;;;;3.70;1.90;;;;;;;20.93;43.88;101132.50;105187;1256;83767;-47
2023/04/30 11:32:39;;;;;;;6.00;2.10;;;;;;;21.05;43.44;101131.52;105199;1262;73902;-48
2023/04/30 11:35:07;;;;;;;3.60;2.00;;;;;;;21.20;42.94;101126.53;104780;1257;468490;-48